sensor_id;sensor_type;location;lat;lon;timestamp;temperature;humidity
2907;DHT22;1463;51.070;16.998;2023-05-21T00:00:30;16.00;99.90
2907;DHT22;1463;51.070;16.998;2023-05-21T00:02:58;16.00;99.90
2907;DHT22;1463;51.070;16.998;2023-05-21T00:05:26;16.00;99.90
2907;DHT22;1463;51.070;16.998;2023-05-21T00:07:53;16.00;99.90
2907;DHT22;1463;51.070;16.998;2023-05-21T00:10:21;16.00;99.90
2907;DHT22;1463;51.070;16.998;2023-05-21T00:12:48;15.90;99.90
2907;DHT22;1463;51.070;16.998;2023-05-21T00:15:17;16.00;99.90
2907;DHT22;1463;51.070;16.998;2023-05-21T00:17:45;16.00;99.90
2907;DHT22;1463;51.070;16.998;2023-05-21T00:20:12;15.90;99.90
2907;DHT22;1463;51.070;16.998;2023-05-21T00:22:41;15.90;99.90
2907;DHT22;1463;51.070;16.998;2023-05-21T00:25:09;15.80;99.90
2907;DHT22;1463;51.070;16.998;2023-05-21T00:27:37;15.80;99.90
2907;DHT22;1463;51.070;16.998;2023-05-21T00:30:06;15.80;99.90
2907;DHT22;1463;51.070;16.998;2023-05-21T00:32:35;15.80;99.90
2907;DHT22;1463;51.070;16.998;2023-05-21T00:35:03;15.70;99.90
2907;DHT22;1463;51.070;16.998;2023-05-21T00:37:31;15.70;99.90
2907;DHT22;1463;51.070;16.998;2023-05-21T00:39:59;15.60;99.90
2907;DHT22;1463;51.070;16.998;2023-05-21T00:42:26;15.60;99.90
2907;DHT22;1463;51.070;16.998;2023-05-21T00:44:55;15.50;99.90
2907;DHT22;1463;51.070;16.998;2023-05-21T00:47:23;15.50;99.90
2907;DHT22;1463;51.070;16.998;2023-05-21T00:49:53;15.50;99.90
2907;DHT22;1463;51.070;16.998;2023-05-21T00:52:21;15.50;99.90
2907;DHT22;1463;51.070;16.998;2023-05-21T00:54:51;15.50;99.90
2907;DHT22;1463;51.070;16.998;2023-05-21T00:57:19;15.50;99.90
2907;DHT22;1463;51.070;16.998;2023-05-21T00:59:50;15.40;99.90
2907;DHT22;1463;51.070;16.998;2023-05-21T01:02:18;15.50;99.90
2907;DHT22;1463;51.070;16.998;2023-05-21T01:04:49;15.40;99.90
2907;DHT22;1463;51.070;16.998;2023-05-21T01:07:19;15.40;99.90
2907;DHT22;1463;51.070;16.998;2023-05-21T01:09:47;15.50;99.90
2907;DHT22;1463;51.070;16.998;2023-05-21T01:12:15;15.50;99.90
2907;DHT22;1463;51.070;16.998;2023-05-21T01:14:42;15.60;99.90
2907;DHT22;1463;51.070;16.998;2023-05-21T01:17:10;15.60;99.90
2907;DHT22;1463;51.070;16.998;2023-05-21T01:19:38;15.70;99.90
2907;DHT22;1463;51.070;16.998;2023-05-21T01:22:07;15.70;99.90
2907;DHT22;1463;51.070;16.998;2023-05-21T01:24:36;15.70;99.90
2907;DHT22;1463;51.070;16.998;2023-05-21T01:27:04;15.70;99.90
2907;DHT22;1463;51.070;16.998;2023-05-21T01:29:32;15.70;99.90
2907;DHT22;1463;51.070;16.998;2023-05-21T01:32:04;15.60;99.90
2907;DHT22;1463;51.070;16.998;2023-05-21T01:34:43;15.60;99.90
2907;DHT22;1463;51.070;16.998;2023-05-21T01:37:16;15.70;99.90
2907;DHT22;1463;51.070;16.998;2023-05-21T01:39:51;15.70;99.90
2907;DHT22;1463;51.070;16.998;2023-05-21T01:42:20;15.70;99.90
2907;DHT22;1463;51.070;16.998;2023-05-21T01:44:50;15.60;99.90
2907;DHT22;1463;51.070;16.998;2023-05-21T01:47:18;15.60;99.90
2907;DHT22;1463;51.070;16.998;2023-05-21T01:49:46;15.60;99.90
2907;DHT22;1463;51.070;16.998;2023-05-21T01:52:14;15.60;99.90
2907;DHT22;1463;51.070;16.998;2023-05-21T01:54:42;15.60;99.90
2907;DHT22;1463;51.070;16.998;2023-05-21T01:57:11;15.60;99.90
2907;DHT22;1463;51.070;16.998;2023-05-21T01:59:38;15.60;99.90
2907;DHT22;1463;51.070;16.998;2023-05-21T02:02:06;15.60;99.90
2907;DHT22;1463;51.070;16.998;2023-05-21T02:04:33;15.50;99.90
2907;DHT22;1463;51.070;16.998;2023-05-21T02:07:02;15.50;99.90
2907;DHT22;1463;51.070;16.998;2023-05-21T02:09:29;15.50;99.90
2907;DHT22;1463;51.070;16.998;2023-05-21T02:11:56;15.40;99.90
2907;DHT22;1463;51.070;16.998;2023-05-21T02:14:26;15.40;99.90
2907;DHT22;1463;51.070;16.998;2023-05-21T02:16:54;15.40;99.90
2907;DHT22;1463;51.070;16.998;2023-05-21T02:19:22;15.40;99.90
2907;DHT22;1463;51.070;16.998;2023-05-21T02:21:50;15.40;99.90
2907;DHT22;1463;51.070;16.998;2023-05-21T02:24:18;15.40;99.90
2907;DHT22;1463;51.070;16.998;2023-05-21T02:26:47;15.30;99.90
2907;DHT22;1463;51.070;16.998;2023-05-21T02:29:15;15.30;99.90
2907;DHT22;1463;51.070;16.998;2023-05-21T02:31:44;15.30;99.90
2907;DHT22;1463;51.070;16.998;2023-05-21T02:34:12;15.20;99.90
2907;DHT22;1463;51.070;16.998;2023-05-21T02:36:39;15.20;99.90
2907;DHT22;1463;51.070;16.998;2023-05-21T02:39:07;15.20;99.90
2907;DHT22;1463;51.070;16.998;2023-05-21T02:41:38;15.20;99.90
2907;DHT22;1463;51.070;16.998;2023-05-21T02:44:05;15.20;99.90
2907;DHT22;1463;51.070;16.998;2023-05-21T02:46:33;15.20;99.90
2907;DHT22;1463;51.070;16.998;2023-05-21T02:49:02;15.20;99.90
2907;DHT22;1463;51.070;16.998;2023-05-21T02:51:30;15.10;99.90
2907;DHT22;1463;51.070;16.998;2023-05-21T02:53:58;15.20;99.90
2907;DHT22;1463;51.070;16.998;2023-05-21T02:56:25;15.10;99.90
2907;DHT22;1463;51.070;16.998;2023-05-21T02:58:52;15.10;99.90
2907;DHT22;1463;51.070;16.998;2023-05-21T03:01:20;15.10;99.90
2907;DHT22;1463;51.070;16.998;2023-05-21T03:03:50;15.10;99.90
2907;DHT22;1463;51.070;16.998;2023-05-21T03:06:19;15.10;99.90
2907;DHT22;1463;51.070;16.998;2023-05-21T03:08:47;15.00;99.90
2907;DHT22;1463;51.070;16.998;2023-05-21T03:11:14;15.00;99.90
2907;DHT22;1463;51.070;16.998;2023-05-21T03:13:42;15.00;99.90
2907;DHT22;1463;51.070;16.998;2023-05-21T03:16:09;15.00;99.90
2907;DHT22;1463;51.070;16.998;2023-05-21T03:18:37;14.90;99.90
2907;DHT22;1463;51.070;16.998;2023-05-21T03:21:05;14.90;99.90
2907;DHT22;1463;51.070;16.998;2023-05-21T03:23:34;14.90;99.90
2907;DHT22;1463;51.070;16.998;2023-05-21T03:26:01;14.90;99.90
2907;DHT22;1463;51.070;16.998;2023-05-21T03:28:30;14.90;99.90
2907;DHT22;1463;51.070;16.998;2023-05-21T03:30:57;14.90;99.90
2907;DHT22;1463;51.070;16.998;2023-05-21T03:33:25;14.90;99.90
2907;DHT22;1463;51.070;16.998;2023-05-21T03:35:52;14.90;99.90
2907;DHT22;1463;51.070;16.998;2023-05-21T03:38:20;14.90;99.90
2907;DHT22;1463;51.070;16.998;2023-05-21T03:40:49;15.00;99.90
2907;DHT22;1463;51.070;16.998;2023-05-21T03:43:17;15.10;99.90
2907;DHT22;1463;51.070;16.998;2023-05-21T03:45:44;15.00;99.90
2907;DHT22;1463;51.070;16.998;2023-05-21T03:48:11;15.00;99.90
2907;DHT22;1463;51.070;16.998;2023-05-21T03:50:39;15.10;99.90
2907;DHT22;1463;51.070;16.998;2023-05-21T03:53:07;15.10;99.90
2907;DHT22;1463;51.070;16.998;2023-05-21T03:55:35;15.00;99.90
2907;DHT22;1463;51.070;16.998;2023-05-21T03:58:04;15.10;99.90
2907;DHT22;1463;51.070;16.998;2023-05-21T04:00:32;15.00;99.90
2907;DHT22;1463;51.070;16.998;2023-05-21T04:03:02;15.00;99.90
2907;DHT22;1463;51.070;16.998;2023-05-21T04:05:29;15.00;99.90
2907;DHT22;1463;51.070;16.998;2023-05-21T04:07:57;15.10;99.90
2907;DHT22;1463;51.070;16.998;2023-05-21T04:10:25;15.10;99.90
2907;DHT22;1463;51.070;16.998;2023-05-21T04:12:52;15.10;99.90
2907;DHT22;1463;51.070;16.998;2023-05-21T04:15:21;15.00;99.90
2907;DHT22;1463;51.070;16.998;2023-05-21T04:17:49;15.00;99.90
2907;DHT22;1463;51.070;16.998;2023-05-21T04:20:17;15.00;99.90
2907;DHT22;1463;51.070;16.998;2023-05-21T04:22:44;15.00;99.90
2907;DHT22;1463;51.070;16.998;2023-05-21T04:25:12;15.20;99.90
2907;DHT22;1463;51.070;16.998;2023-05-21T04:27:39;15.20;99.90
2907;DHT22;1463;51.070;16.998;2023-05-21T04:30:08;15.30;99.90
2907;DHT22;1463;51.070;16.998;2023-05-21T04:32:37;15.40;99.90
2907;DHT22;1463;51.070;16.998;2023-05-21T04:35:05;15.40;99.90
2907;DHT22;1463;51.070;16.998;2023-05-21T04:37:33;15.50;99.90
2907;DHT22;1463;51.070;16.998;2023-05-21T04:40:01;15.50;99.90
2907;DHT22;1463;51.070;16.998;2023-05-21T04:42:29;15.60;99.90
2907;DHT22;1463;51.070;16.998;2023-05-21T04:44:57;15.80;99.90
2907;DHT22;1463;51.070;16.998;2023-05-21T04:47:25;15.80;99.90
2907;DHT22;1463;51.070;16.998;2023-05-21T04:49:56;15.80;99.90
2907;DHT22;1463;51.070;16.998;2023-05-21T04:52:24;15.80;99.90
2907;DHT22;1463;51.070;16.998;2023-05-21T04:54:51;15.80;99.90
2907;DHT22;1463;51.070;16.998;2023-05-21T04:57:19;15.90;99.90
2907;DHT22;1463;51.070;16.998;2023-05-21T04:59:46;16.00;99.90
2907;DHT22;1463;51.070;16.998;2023-05-21T05:02:14;16.00;99.90
2907;DHT22;1463;51.070;16.998;2023-05-21T05:04:41;16.10;99.90
2907;DHT22;1463;51.070;16.998;2023-05-21T05:07:11;16.10;99.90
2907;DHT22;1463;51.070;16.998;2023-05-21T05:09:38;16.20;99.90
2907;DHT22;1463;51.070;16.998;2023-05-21T05:12:06;16.20;99.90
2907;DHT22;1463;51.070;16.998;2023-05-21T05:14:34;16.30;99.90
2907;DHT22;1463;51.070;16.998;2023-05-21T05:17:01;16.30;99.90
2907;DHT22;1463;51.070;16.998;2023-05-21T05:19:29;16.40;99.90
2907;DHT22;1463;51.070;16.998;2023-05-21T05:21:56;16.40;99.90
2907;DHT22;1463;51.070;16.998;2023-05-21T05:24:25;16.50;99.90
2907;DHT22;1463;51.070;16.998;2023-05-21T05:26:53;16.50;99.90
2907;DHT22;1463;51.070;16.998;2023-05-21T05:29:20;16.60;99.90
2907;DHT22;1463;51.070;16.998;2023-05-21T05:31:48;16.70;99.90
2907;DHT22;1463;51.070;16.998;2023-05-21T05:34:15;16.70;99.90
2907;DHT22;1463;51.070;16.998;2023-05-21T05:36:43;16.60;99.90
2907;DHT22;1463;51.070;16.998;2023-05-21T05:39:10;16.60;99.90
2907;DHT22;1463;51.070;16.998;2023-05-21T05:41:39;16.70;99.90
2907;DHT22;1463;51.070;16.998;2023-05-21T05:44:07;16.80;99.90
2907;DHT22;1463;51.070;16.998;2023-05-21T05:46:34;16.90;99.90
2907;DHT22;1463;51.070;16.998;2023-05-21T05:49:02;17.00;99.90
2907;DHT22;1463;51.070;16.998;2023-05-21T05:51:29;17.10;99.90
2907;DHT22;1463;51.070;16.998;2023-05-21T05:53:57;17.10;99.90
2907;DHT22;1463;51.070;16.998;2023-05-21T05:56:25;17.20;99.90
2907;DHT22;1463;51.070;16.998;2023-05-21T05:58:54;17.20;99.90
2907;DHT22;1463;51.070;16.998;2023-05-21T06:01:21;17.10;99.90
2907;DHT22;1463;51.070;16.998;2023-05-21T06:03:49;17.20;99.90
2907;DHT22;1463;51.070;16.998;2023-05-21T06:06:17;17.30;99.90
2907;DHT22;1463;51.070;16.998;2023-05-21T06:08:44;17.40;99.90
2907;DHT22;1463;51.070;16.998;2023-05-21T06:11:12;17.40;99.90
2907;DHT22;1463;51.070;16.998;2023-05-21T06:13:41;17.50;99.90
2907;DHT22;1463;51.070;16.998;2023-05-21T06:16:11;17.70;99.90
2907;DHT22;1463;51.070;16.998;2023-05-21T06:18:38;17.70;99.90
2907;DHT22;1463;51.070;16.998;2023-05-21T06:21:05;17.80;99.90
2907;DHT22;1463;51.070;16.998;2023-05-21T06:23:33;17.80;99.90
2907;DHT22;1463;51.070;16.998;2023-05-21T06:26:02;17.70;99.90
2907;DHT22;1463;51.070;16.998;2023-05-21T06:28:30;17.70;99.90
2907;DHT22;1463;51.070;16.998;2023-05-21T06:30:57;17.70;99.90
2907;DHT22;1463;51.070;16.998;2023-05-21T06:33:26;17.80;99.90
2907;DHT22;1463;51.070;16.998;2023-05-21T06:35:54;18.00;99.90
2907;DHT22;1463;51.070;16.998;2023-05-21T06:38:21;18.10;99.90
2907;DHT22;1463;51.070;16.998;2023-05-21T06:40:49;18.10;99.90
2907;DHT22;1463;51.070;16.998;2023-05-21T06:43:16;18.10;99.90
2907;DHT22;1463;51.070;16.998;2023-05-21T06:45:44;18.20;99.90
2907;DHT22;1463;51.070;16.998;2023-05-21T06:48:11;18.30;99.90
2907;DHT22;1463;51.070;16.998;2023-05-21T06:50:42;18.20;99.90
2907;DHT22;1463;51.070;16.998;2023-05-21T06:53:09;18.30;99.90
2907;DHT22;1463;51.070;16.998;2023-05-21T06:55:38;18.50;99.90
2907;DHT22;1463;51.070;16.998;2023-05-21T06:58:06;18.50;99.90
2907;DHT22;1463;51.070;16.998;2023-05-21T07:00:33;18.50;99.90
2907;DHT22;1463;51.070;16.998;2023-05-21T07:03:01;18.70;99.90
2907;DHT22;1463;51.070;16.998;2023-05-21T07:05:28;18.70;99.90
2907;DHT22;1463;51.070;16.998;2023-05-21T07:07:57;18.80;99.90
2907;DHT22;1463;51.070;16.998;2023-05-21T07:10:24;18.90;99.90
2907;DHT22;1463;51.070;16.998;2023-05-21T07:12:52;18.90;99.90
2907;DHT22;1463;51.070;16.998;2023-05-21T07:15:19;19.00;99.90
2907;DHT22;1463;51.070;16.998;2023-05-21T07:17:47;19.00;99.90
2907;DHT22;1463;51.070;16.998;2023-05-21T07:20:15;19.10;99.90
2907;DHT22;1463;51.070;16.998;2023-05-21T07:22:43;19.20;99.90
2907;DHT22;1463;51.070;16.998;2023-05-21T07:25:12;19.30;99.90
2907;DHT22;1463;51.070;16.998;2023-05-21T07:27:40;19.40;99.90
2907;DHT22;1463;51.070;16.998;2023-05-21T07:30:09;19.50;99.90
2907;DHT22;1463;51.070;16.998;2023-05-21T07:32:36;19.60;99.90
2907;DHT22;1463;51.070;16.998;2023-05-21T07:35:05;19.70;99.90
2907;DHT22;1463;51.070;16.998;2023-05-21T07:37:32;19.70;99.90
2907;DHT22;1463;51.070;16.998;2023-05-21T07:40:00;19.70;99.90
2907;DHT22;1463;51.070;16.998;2023-05-21T07:42:30;19.70;99.90
2907;DHT22;1463;51.070;16.998;2023-05-21T07:44:57;19.80;99.90
2907;DHT22;1463;51.070;16.998;2023-05-21T07:47:25;19.90;99.90
2907;DHT22;1463;51.070;16.998;2023-05-21T07:49:52;20.00;99.90
2907;DHT22;1463;51.070;16.998;2023-05-21T07:52:20;20.10;99.90
2907;DHT22;1463;51.070;16.998;2023-05-21T07:54:47;20.30;99.90
2907;DHT22;1463;51.070;16.998;2023-05-21T07:57:15;20.50;99.90
2907;DHT22;1463;51.070;16.998;2023-05-21T07:59:44;20.60;99.90
2907;DHT22;1463;51.070;16.998;2023-05-21T08:02:11;20.60;99.90
2907;DHT22;1463;51.070;16.998;2023-05-21T08:04:39;20.80;99.90
2907;DHT22;1463;51.070;16.998;2023-05-21T08:07:07;20.90;99.90
2907;DHT22;1463;51.070;16.998;2023-05-21T08:09:34;20.90;99.90
2907;DHT22;1463;51.070;16.998;2023-05-21T08:12:02;21.00;99.90
2907;DHT22;1463;51.070;16.998;2023-05-21T08:14:29;21.10;99.90
2907;DHT22;1463;51.070;16.998;2023-05-21T08:16:58;21.00;99.90
2907;DHT22;1463;51.070;16.998;2023-05-21T08:19:26;21.10;99.90
2907;DHT22;1463;51.070;16.998;2023-05-21T08:21:53;21.20;99.90
2907;DHT22;1463;51.070;16.998;2023-05-21T08:24:21;21.40;99.90
2907;DHT22;1463;51.070;16.998;2023-05-21T08:26:48;21.50;99.90
2907;DHT22;1463;51.070;16.998;2023-05-21T08:29:16;21.50;99.90
2907;DHT22;1463;51.070;16.998;2023-05-21T08:31:43;21.60;99.90
2907;DHT22;1463;51.070;16.998;2023-05-21T08:34:12;21.50;99.90
2907;DHT22;1463;51.070;16.998;2023-05-21T08:36:40;21.60;99.90
2907;DHT22;1463;51.070;16.998;2023-05-21T08:39:08;21.80;99.90
2907;DHT22;1463;51.070;16.998;2023-05-21T08:41:36;21.90;99.90
2907;DHT22;1463;51.070;16.998;2023-05-21T08:44:10;22.00;99.90
2907;DHT22;1463;51.070;16.998;2023-05-21T08:46:39;22.10;99.90
2907;DHT22;1463;51.070;16.998;2023-05-21T08:49:12;22.20;99.90
2907;DHT22;1463;51.070;16.998;2023-05-21T08:51:41;22.40;99.90
2907;DHT22;1463;51.070;16.998;2023-05-21T08:54:11;22.40;99.90
2907;DHT22;1463;51.070;16.998;2023-05-21T08:56:39;22.40;99.90
2907;DHT22;1463;51.070;16.998;2023-05-21T08:59:12;22.50;99.90
2907;DHT22;1463;51.070;16.998;2023-05-21T09:01:40;22.70;99.90
2907;DHT22;1463;51.070;16.998;2023-05-21T09:04:08;22.80;99.90
2907;DHT22;1463;51.070;16.998;2023-05-21T09:06:39;22.80;99.90
2907;DHT22;1463;51.070;16.998;2023-05-21T09:09:15;23.00;99.90
2907;DHT22;1463;51.070;16.998;2023-05-21T09:11:44;23.00;99.90
2907;DHT22;1463;51.070;16.998;2023-05-21T09:14:12;23.10;99.90
2907;DHT22;1463;51.070;16.998;2023-05-21T09:16:41;23.20;99.90
2907;DHT22;1463;51.070;16.998;2023-05-21T09:19:08;23.20;99.90
2907;DHT22;1463;51.070;16.998;2023-05-21T09:21:39;23.40;99.90
2907;DHT22;1463;51.070;16.998;2023-05-21T09:24:08;23.50;99.90
2907;DHT22;1463;51.070;16.998;2023-05-21T09:26:37;23.50;99.90
2907;DHT22;1463;51.070;16.998;2023-05-21T09:29:07;23.50;99.90
2907;DHT22;1463;51.070;16.998;2023-05-21T09:31:34;23.50;99.90
2907;DHT22;1463;51.070;16.998;2023-05-21T09:34:02;23.50;99.90
2907;DHT22;1463;51.070;16.998;2023-05-21T09:36:29;23.70;99.90
2907;DHT22;1463;51.070;16.998;2023-05-21T09:39:00;23.70;99.90
2907;DHT22;1463;51.070;16.998;2023-05-21T09:41:32;23.70;99.90
2907;DHT22;1463;51.070;16.998;2023-05-21T09:44:01;23.80;99.90
2907;DHT22;1463;51.070;16.998;2023-05-21T09:46:38;24.00;99.90
2907;DHT22;1463;51.070;16.998;2023-05-21T09:49:06;24.10;99.80
2907;DHT22;1463;51.070;16.998;2023-05-21T09:51:37;24.20;99.80
2907;DHT22;1463;51.070;16.998;2023-05-21T09:54:09;24.20;99.30
2907;DHT22;1463;51.070;16.998;2023-05-21T09:56:39;24.20;99.90
2907;DHT22;1463;51.070;16.998;2023-05-21T09:59:06;24.30;99.90
2907;DHT22;1463;51.070;16.998;2023-05-21T10:07:52;24.60;99.90
2907;DHT22;1463;51.070;16.998;2023-05-21T10:10:23;24.70;98.20
2907;DHT22;1463;51.070;16.998;2023-05-21T10:12:55;24.70;98.10
2907;DHT22;1463;51.070;16.998;2023-05-21T10:15:26;24.70;98.40
2907;DHT22;1463;51.070;16.998;2023-05-21T10:17:54;24.80;99.10
2907;DHT22;1463;51.070;16.998;2023-05-21T10:20:22;25.00;98.00
2907;DHT22;1463;51.070;16.998;2023-05-21T10:22:56;25.00;96.70
2907;DHT22;1463;51.070;16.998;2023-05-21T10:25:26;25.10;96.60
2907;DHT22;1463;51.070;16.998;2023-05-21T10:27:55;25.20;96.40
2907;DHT22;1463;51.070;16.998;2023-05-21T10:30:23;25.20;96.20
2907;DHT22;1463;51.070;16.998;2023-05-21T10:32:51;25.10;95.50
2907;DHT22;1463;51.070;16.998;2023-05-21T10:35:19;25.20;96.10
2907;DHT22;1463;51.070;16.998;2023-05-21T10:37:47;25.20;95.40
2907;DHT22;1463;51.070;16.998;2023-05-21T10:40:16;25.40;95.10
2907;DHT22;1463;51.070;16.998;2023-05-21T10:45:57;25.40;95.40
2907;DHT22;1463;51.070;16.998;2023-05-21T10:51:38;25.60;93.60
2907;DHT22;1463;51.070;16.998;2023-05-21T10:57:49;25.60;93.10
2907;DHT22;1463;51.070;16.998;2023-05-21T11:00:23;25.70;91.50
2907;DHT22;1463;51.070;16.998;2023-05-21T11:02:54;25.70;91.40
2907;DHT22;1463;51.070;16.998;2023-05-21T11:05:40;25.70;91.70
2907;DHT22;1463;51.070;16.998;2023-05-21T11:08:24;25.80;91.70
2907;DHT22;1463;51.070;16.998;2023-05-21T11:10:53;25.80;90.80
2907;DHT22;1463;51.070;16.998;2023-05-21T11:13:23;25.80;90.60
2907;DHT22;1463;51.070;16.998;2023-05-21T11:16:06;25.80;90.80
2907;DHT22;1463;51.070;16.998;2023-05-21T11:19:05;25.80;91.00
2907;DHT22;1463;51.070;16.998;2023-05-21T11:21:34;25.90;90.80
2907;DHT22;1463;51.070;16.998;2023-05-21T11:24:05;26.00;90.50
2907;DHT22;1463;51.070;16.998;2023-05-21T11:27:00;26.00;90.30
2907;DHT22;1463;51.070;16.998;2023-05-21T11:29:37;26.10;89.10
2907;DHT22;1463;51.070;16.998;2023-05-21T11:32:07;26.20;88.50
2907;DHT22;1463;51.070;16.998;2023-05-21T11:34:41;26.30;86.60
2907;DHT22;1463;51.070;16.998;2023-05-21T11:37:32;26.40;86.30
2907;DHT22;1463;51.070;16.998;2023-05-21T11:40:23;26.40;86.20
2907;DHT22;1463;51.070;16.998;2023-05-21T11:42:53;26.40;81.50
2907;DHT22;1463;51.070;16.998;2023-05-21T11:45:21;26.40;83.70
2907;DHT22;1463;51.070;16.998;2023-05-21T11:47:50;26.40;81.60
2907;DHT22;1463;51.070;16.998;2023-05-21T11:50:20;26.40;80.50
2907;DHT22;1463;51.070;16.998;2023-05-21T11:52:48;26.30;80.80
2907;DHT22;1463;51.070;16.998;2023-05-21T11:55:20;26.30;79.80
2907;DHT22;1463;51.070;16.998;2023-05-21T11:57:52;26.50;79.60
2907;DHT22;1463;51.070;16.998;2023-05-21T12:00:20;26.50;79.30
2907;DHT22;1463;51.070;16.998;2023-05-21T12:02:50;26.50;77.60
2907;DHT22;1463;51.070;16.998;2023-05-21T12:05:19;26.30;76.40
2907;DHT22;1463;51.070;16.998;2023-05-21T12:07:47;26.30;76.30
2907;DHT22;1463;51.070;16.998;2023-05-21T12:10:19;26.40;74.20
2907;DHT22;1463;51.070;16.998;2023-05-21T12:12:47;26.30;73.70
2907;DHT22;1463;51.070;16.998;2023-05-21T12:15:16;26.30;74.30
2907;DHT22;1463;51.070;16.998;2023-05-21T12:17:48;26.30;75.90
2907;DHT22;1463;51.070;16.998;2023-05-21T12:20:19;26.50;75.80
2907;DHT22;1463;51.070;16.998;2023-05-21T12:22:47;26.50;74.60
2907;DHT22;1463;51.070;16.998;2023-05-21T12:25:17;26.60;74.50
2907;DHT22;1463;51.070;16.998;2023-05-21T12:27:45;26.50;73.90
2907;DHT22;1463;51.070;16.998;2023-05-21T12:30:13;26.40;74.20
2907;DHT22;1463;51.070;16.998;2023-05-21T12:32:42;26.40;75.00
2907;DHT22;1463;51.070;16.998;2023-05-21T12:35:21;26.40;73.80
2907;DHT22;1463;51.070;16.998;2023-05-21T12:37:49;26.40;73.70
2907;DHT22;1463;51.070;16.998;2023-05-21T12:40:17;26.40;72.50
2907;DHT22;1463;51.070;16.998;2023-05-21T12:42:45;26.30;73.70
2907;DHT22;1463;51.070;16.998;2023-05-21T12:45:13;26.30;73.90
2907;DHT22;1463;51.070;16.998;2023-05-21T12:47:47;26.40;73.30
2907;DHT22;1463;51.070;16.998;2023-05-21T12:50:21;26.50;73.30
2907;DHT22;1463;51.070;16.998;2023-05-21T12:52:48;26.50;74.00
2907;DHT22;1463;51.070;16.998;2023-05-21T12:55:16;26.50;74.30
2907;DHT22;1463;51.070;16.998;2023-05-21T12:57:43;26.60;74.30
2907;DHT22;1463;51.070;16.998;2023-05-21T13:00:12;26.60;73.50
2907;DHT22;1463;51.070;16.998;2023-05-21T13:02:41;26.60;72.50
2907;DHT22;1463;51.070;16.998;2023-05-21T13:05:09;26.60;74.80
2907;DHT22;1463;51.070;16.998;2023-05-21T13:07:39;26.60;73.60
2907;DHT22;1463;51.070;16.998;2023-05-21T13:10:09;26.60;71.70
2907;DHT22;1463;51.070;16.998;2023-05-21T13:12:37;26.50;71.60
2907;DHT22;1463;51.070;16.998;2023-05-21T13:15:05;26.50;72.10
2907;DHT22;1463;51.070;16.998;2023-05-21T13:17:33;26.50;73.50
2907;DHT22;1463;51.070;16.998;2023-05-21T13:20:05;26.50;73.40
2907;DHT22;1463;51.070;16.998;2023-05-21T13:22:34;26.50;73.50
2907;DHT22;1463;51.070;16.998;2023-05-21T13:25:06;26.40;72.80
2907;DHT22;1463;51.070;16.998;2023-05-21T13:27:34;26.50;74.00
2907;DHT22;1463;51.070;16.998;2023-05-21T13:30:01;26.60;72.70
2907;DHT22;1463;51.070;16.998;2023-05-21T13:32:29;26.60;72.60
2907;DHT22;1463;51.070;16.998;2023-05-21T13:34:56;26.60;73.20
2907;DHT22;1463;51.070;16.998;2023-05-21T13:37:24;26.60;73.10
2907;DHT22;1463;51.070;16.998;2023-05-21T13:39:51;26.80;72.70
2907;DHT22;1463;51.070;16.998;2023-05-21T13:42:20;26.70;71.50
2907;DHT22;1463;51.070;16.998;2023-05-21T13:44:49;26.80;71.30
2907;DHT22;1463;51.070;16.998;2023-05-21T13:47:17;26.90;70.20
2907;DHT22;1463;51.070;16.998;2023-05-21T13:49:45;26.90;69.40
2907;DHT22;1463;51.070;16.998;2023-05-21T13:52:12;26.70;69.30
2907;DHT22;1463;51.070;16.998;2023-05-21T13:54:40;26.60;70.70
2907;DHT22;1463;51.070;16.998;2023-05-21T13:57:09;26.60;69.90
2907;DHT22;1463;51.070;16.998;2023-05-21T13:59:38;26.60;70.70
2907;DHT22;1463;51.070;16.998;2023-05-21T14:02:07;26.50;70.40
2907;DHT22;1463;51.070;16.998;2023-05-21T14:04:35;26.50;70.40
2907;DHT22;1463;51.070;16.998;2023-05-21T14:07:03;26.60;70.60
2907;DHT22;1463;51.070;16.998;2023-05-21T14:09:31;26.40;69.30
2907;DHT22;1463;51.070;16.998;2023-05-21T14:11:58;26.40;69.30
2907;DHT22;1463;51.070;16.998;2023-05-21T14:14:26;26.30;69.20
2907;DHT22;1463;51.070;16.998;2023-05-21T14:16:55;26.20;69.80
2907;DHT22;1463;51.070;16.998;2023-05-21T14:19:49;26.20;69.40
2907;DHT22;1463;51.070;16.998;2023-05-21T14:22:52;26.10;70.20
2907;DHT22;1463;51.070;16.998;2023-05-21T14:25:56;26.00;69.70
2907;DHT22;1463;51.070;16.998;2023-05-21T14:28:58;25.90;68.70
2907;DHT22;1463;51.070;16.998;2023-05-21T14:31:39;26.00;69.00
2907;DHT22;1463;51.070;16.998;2023-05-21T14:34:08;25.90;70.00
2907;DHT22;1463;51.070;16.998;2023-05-21T14:36:36;25.80;70.70
2907;DHT22;1463;51.070;16.998;2023-05-21T14:39:03;25.80;70.50
2907;DHT22;1463;51.070;16.998;2023-05-21T14:41:31;25.80;70.70
2907;DHT22;1463;51.070;16.998;2023-05-21T14:43:58;25.80;70.20
2907;DHT22;1463;51.070;16.998;2023-05-21T14:46:26;25.80;70.70
2907;DHT22;1463;51.070;16.998;2023-05-21T14:48:53;25.80;70.70
2907;DHT22;1463;51.070;16.998;2023-05-21T14:51:25;25.90;70.10
2907;DHT22;1463;51.070;16.998;2023-05-21T14:53:53;25.80;69.30
2907;DHT22;1463;51.070;16.998;2023-05-21T14:56:22;25.80;69.20
2907;DHT22;1463;51.070;16.998;2023-05-21T14:58:51;25.60;69.40
2907;DHT22;1463;51.070;16.998;2023-05-21T15:01:19;25.60;69.50
2907;DHT22;1463;51.070;16.998;2023-05-21T15:03:46;25.50;69.60
2907;DHT22;1463;51.070;16.998;2023-05-21T15:06:14;25.50;69.30
2907;DHT22;1463;51.070;16.998;2023-05-21T15:08:43;25.50;70.10
2907;DHT22;1463;51.070;16.998;2023-05-21T15:11:10;25.50;69.60
2907;DHT22;1463;51.070;16.998;2023-05-21T15:13:38;25.60;68.50
2907;DHT22;1463;51.070;16.998;2023-05-21T15:16:06;25.50;68.80
2907;DHT22;1463;51.070;16.998;2023-05-21T15:18:33;25.50;68.60
2907;DHT22;1463;51.070;16.998;2023-05-21T15:21:00;25.60;69.60
2907;DHT22;1463;51.070;16.998;2023-05-21T15:23:28;25.60;69.60
2907;DHT22;1463;51.070;16.998;2023-05-21T15:25:57;25.60;68.20
2907;DHT22;1463;51.070;16.998;2023-05-21T15:28:24;25.60;67.70
2907;DHT22;1463;51.070;16.998;2023-05-21T15:30:52;25.60;67.50
2907;DHT22;1463;51.070;16.998;2023-05-21T15:33:20;25.60;66.90
2907;DHT22;1463;51.070;16.998;2023-05-21T15:35:47;25.60;66.70
2907;DHT22;1463;51.070;16.998;2023-05-21T15:38:15;25.60;67.60
2907;DHT22;1463;51.070;16.998;2023-05-21T15:40:42;25.60;67.50
2907;DHT22;1463;51.070;16.998;2023-05-21T15:43:11;25.60;67.20
2907;DHT22;1463;51.070;16.998;2023-05-21T15:45:39;25.60;67.20
2907;DHT22;1463;51.070;16.998;2023-05-21T15:48:06;25.60;66.30
2907;DHT22;1463;51.070;16.998;2023-05-21T15:50:34;25.70;67.40
2907;DHT22;1463;51.070;16.998;2023-05-21T15:53:03;25.60;67.50
2907;DHT22;1463;51.070;16.998;2023-05-21T15:55:31;25.60;67.90
2907;DHT22;1463;51.070;16.998;2023-05-21T15:57:59;25.60;67.10
2907;DHT22;1463;51.070;16.998;2023-05-21T16:00:28;25.60;67.80
2907;DHT22;1463;51.070;16.998;2023-05-21T16:02:56;25.60;67.80
2907;DHT22;1463;51.070;16.998;2023-05-21T16:05:24;25.60;66.80
2907;DHT22;1463;51.070;16.998;2023-05-21T16:07:52;25.70;66.00
2907;DHT22;1463;51.070;16.998;2023-05-21T16:10:20;25.60;66.00
2907;DHT22;1463;51.070;16.998;2023-05-21T16:12:48;25.60;66.40